Historyczne dane pomiarowe

Dodano dane terminowe – wersja testowa.

Dane z okresu 1951-2019

Wersja bazy: 1.34 [2019-03-16, lista zmian], aktualizacja planowana na 2019-04-15

Dane meteo z obszaru Polski uzyskane na podstawie danych udostępnionych przez Instytut Meteorologii i Gospodarki Wodnej – Państwowy Instytut Badawczy.

 

Wybierz Datę:    

       

TemperaturaWilgotnośćWiatrCiśnienieOpadyŚniegCzas trwania zjawisk
 Stacja t tx tn tng RH VA  wxwx mslp ppp RRR   cm mm wxwxwxwxwxwxwx
1983-08-13 14.7 20.4 12.4 11.8 83.3- 8.0 4.3---- 10.5------------
1983-08-14 13.8 16.7 10.8 9.7 81.8- 7.3 7.0---- 0.0------------
1983-08-15 15.5 21.1 10.9 10.3 77.3- 7.3 3.3---- 0.0------------
1983-08-16 18.5 24.6 13.5 11.7 55.8- 5.0 10.0---- 0.0------------
1983-08-17 19.8 26.5 16.5 14.3 61.5- 5.0 5.0---- 0.0------------
1983-08-18 18.7 25.3 14.4 13.2 80.8- 7.7 2.7---- 0.0------------
1983-08-19 17.4 25.0 11.9 10.3 77.8- 4.7 2.0---- 0.0------------
1983-08-20 16.8 24.2 10.9 10.3 76.8- 4.3 2.0---- 0.0------------
1983-08-21 17.6 25.1 10.4 10.2 70.8- 5.7 4.3---- 0.0------------
1983-08-22 18.5 25.8 12.8 10.7 72.0- 6.7 5.0---- 0.0------------
1983-08-23 19.2 26.0 12.3 10.8 71.8- 6.7 4.0---- 0.0------------
1983-08-24 18.6 26.5 11.5 10.3 77.0- 7.0 3.3---- 0.0------------
1983-08-25 18.8 26.1 12.8 11.7 74.0- 5.3 2.7---- 0.0------------
1983-08-26 17.7 23.1 12.3 11.3 77.5- 6.7 4.3---- 0.0------------
1983-08-27 15.6 23.8 8.9 6.7 68.3- 7.7 3.3---- 0.0------------
1983-08-28 17.8 25.5 10.9 8.6 59.5- 2.7 6.0---- 0.0------------
1983-08-29 16.4 21.8 11.9 10.3 77.8- 7.7 2.0---- 0.0------------
1983-08-30 14.1 22.3 6.9 4.4 66.0- 3.3 5.7---- 0.0------------
1983-08-31 16.0 26.9 6.3 4.9 77.0- 7.7 5.7---- 0.0------------
1983-09-01 19.8 27.3 11.9 10.3 71.0- 5.3 2.3---- 0.0------------
1983-09-02 20.4 27.0 15.3 11.8 56.8- 5.0 7.3---- 0.0------------
1983-09-03 19.9 26.6 14.5 12.3 48.5- 7.3 7.7---- 1.4------------
1983-09-04 14.0 20.1 12.9 10.8 89.8- 8.0 2.7---- 2.9------------
1983-09-05 16.1 21.5 12.9 12.3 76.5- 7.7 2.7---- 0.0------------
1983-09-06 15.3 18.9 11.9 10.3 65.3- 8.0 3.7---- 0.0------------
1983-09-07 11.5 15.0 7.9 7.3 69.8- 3.3 2.0---- 0.0------------
1983-09-08 11.5 16.5 7.9 4.2 60.0- 5.0 4.0---- 0.0------------
1983-09-09 14.5 21.0 6.9 7.3 73.5- 5.0 9.0---- 0.0------------
1983-09-10 20.0 25.5 16.4 4.2 76.3- 4.7 11.0---- 0.0------------
1983-09-11 22.2 28.0 19.1 4.2 61.0- 7.0 6.3---- 1.7------------
1537.4 ms

 

Źródłem pochodzenia danych jest Instytut Meteorologii i Gospodarki Wodnej – Państwowy Instytut Badawczy. Dane Instytutu Meteorologii i Gospodarki Wodnej – Państwowego Instytutu Badawczego zostały przetworzone.

Dane źródłowe można odnaleźć na stronie https://dane.imgw.pl